Time;durP1;ratioP1;P1;durP2;ratioP2;P2;SDS_P1;SDS_P2;PMS_P1;PMS_P2;Temp;Humidity;BMP_temperature;BMP_pressure;BME280_temperature;BME280_humidity;BME280_pressure;Samples;Min_cycle;Max_cycle;Signal;HPM_P1;HPM_P2
2022/07/04 00:02:03;;;;;;;2.6;2.3;;;;;;;20.78;75.74902;940.9554;;;;
2022/07/04 00:04:34;;;;;;;2.7;2.5;;;;;;;20.81;76.37695;941.0345;;;;
2022/07/04 00:07:00;;;;;;;3;2.5;;;;;;;20.77;77.17578;941.2283;;;;
2022/07/04 00:09:26;;;;;;;3.1;2.5;;;;;;;20.55;78.85352;941.2214;;;;
2022/07/04 00:12:06;;;;;;;3.7;1.8;;;;;;;20.26;75.19434;941.3005;;;;
2022/07/04 00:14:38;;;;;;;1.8;1.4;;;;;;;20.49;72.55957;941.4355;;;;
2022/07/04 00:17:26;;;;;;;4.6;1.8;;;;;;;20.51;71.56934;941.4213;;;;
2022/07/04 00:19:51;;;;;;;1.8;1.3;;;;;;;20.5;73.68262;941.4903;;;;
2022/07/04 00:22:16;;;;;;;1.7;1.4;;;;;;;20.36;74.28906;941.4495;;;;
2022/07/04 00:24:47;;;;;;;1.9;1.3;;;;;;;20.22;75.22168;941.9747;;;;
2022/07/04 00:27:18;;;;;;;2;1.2;;;;;;;20.21;73.16699;941.9304;;;;
2022/07/04 00:29:48;;;;;;;1.7;1.4;;;;;;;20.13;75.99023;941.9426;;;;
2022/07/04 00:32:15;;;;;;;2.7;1.5;;;;;;;20.02;74.48828;942.0215;;;;
2022/07/04 00:34:45;;;;;;;2.8;1.4;;;;;;;19.93;75.31445;942.105;;;;
2022/07/04 00:37:10;;;;;;;1.7;1.5;;;;;;;19.74;79.96973;942.1182;;;;
2022/07/04 00:39:37;;;;;;;2.7;1.7;;;;;;;19.41;84.2334;942.2504;;;;
2022/07/04 00:42:02;;;;;;;4.3;1.9;;;;;;;19.2;85.99512;942.1481;;;;
2022/07/04 00:44:28;;;;;;;2.5;1.9;;;;;;;19.12;86.69141;942.1414;;;;
2022/07/04 00:46:53;;;;;;;3;2;;;;;;;19.02;86.24121;941.9717;;;;
2022/07/04 00:49:18;;;;;;;3.1;1.7;;;;;;;18.98;86.875;941.9336;;;;
2022/07/04 00:51:46;;;;;;;3.3;1.9;;;;;;;18.95;87.02051;941.9244;;;;
2022/07/04 00:54:11;;;;;;;3;2.3;;;;;;;19.1;88.63281;941.9149;;;;
2022/07/04 00:56:39;;;;;;;3.2;2.1;;;;;;;19.22;88.91309;941.9397;;;;
2022/07/04 00:59:04;;;;;;;3.4;1.9;;;;;;;19.32;89.06055;942.005;;;;
2022/07/04 01:01:30;;;;;;;6.5;1.9;;;;;;;19.38;89.54004;942.0215;;;;
2022/07/04 01:03:55;;;;;;;2.6;1.8;;;;;;;19.07;90.69824;941.9857;;;;
2022/07/04 01:06:21;;;;;;;2.5;2.1;;;;;;;18.96;91.42285;941.7855;;;;
2022/07/04 01:08:46;;;;;;;3.5;2.1;;;;;;;18.93;91.01758;941.7466;;;;
2022/07/04 01:11:15;;;;;;;2.5;1.8;;;;;;;18.73;92.57227;941.827;;;;
2022/07/04 01:13:40;;;;;;;2.7;1.7;;;;;;;18.46;91.85059;941.9444;;;;
2022/07/04 01:16:06;;;;;;;2.5;1.8;;;;;;;18.38;91.97461;941.7937;;;;
2022/07/04 01:18:34;;;;;;;1.7;1.6;;;;;;;18.59;92.36719;941.6947;;;;
2022/07/04 01:20:59;;;;;;;2;1.8;;;;;;;18.54;92.58887;941.5648;;;;
2022/07/04 01:23:25;;;;;;;2.2;1.8;;;;;;;18.6;91.85938;941.5244;;;;
2022/07/04 01:25:50;;;;;;;3.6;2;;;;;;;18.5;91.37305;941.3638;;;;
2022/07/04 01:28:17;;;;;;;2.2;1.7;;;;;;;18.25;90.83301;941.1917;;;;
2022/07/04 01:30:42;;;;;;;1.6;1.5;;;;;;;18.29;88.14355;941.0807;;;;
2022/07/04 01:33:08;;;;;;;1.7;1.6;;;;;;;18.42;89.35547;941.0843;;;;
2022/07/04 01:35:33;;;;;;;1.9;1.7;;;;;;;18.42;88.83203;941.0181;;;;
2022/07/04 01:38:03;;;;;;;2.4;1.6;;;;;;;18.55;88.06836;941.142;;;;
2022/07/04 01:40:28;;;;;;;1.5;1.4;;;;;;;18.68;88.03516;941.1228;;;;
2022/07/04 01:42:58;;;;;;;3;1.7;;;;;;;18.36;90.99512;941.1013;;;;
2022/07/04 01:45:22;;;;;;;2.6;1.7;;;;;;;18.15;93.55273;940.9939;;;;
2022/07/04 01:47:51;;;;;;;2.1;1.6;;;;;;;18.14;93.81836;940.8878;;;;
2022/07/04 01:50:20;;;;;;;3;1.8;;;;;;;18.2;93.27344;940.8102;;;;
2022/07/04 01:52:45;;;;;;;2.5;1.8;;;;;;;18.32;93.51953;940.8053;;;;
2022/07/04 01:55:16;;;;;;;3;1.9;;;;;;;18.41;94.42188;940.7425;;;;
2022/07/04 01:57:44;;;;;;;2;1.9;;;;;;;18.24;94.3623;940.5478;;;;
2022/07/04 02:02:35;;;;;;;3.7;1.8;;;;;;;18.11;95.36914;940.4481;;;;
2022/07/04 02:05:00;;;;;;;3.4;2;;;;;;;17.96;96.28809;940.3986;;;;
2022/07/04 02:07:26;;;;;;;3.2;2.1;;;;;;;18.12;96.44141;940.3794;;;;
2022/07/04 02:09:52;;;;;;;2;1.8;;;;;;;18.2;95.08594;940.3748;;;;
2022/07/04 02:14:43;;;;;;;2.6;1.8;;;;;;;18.05;95.1582;940.2661;;;;
2022/07/04 02:17:10;;;;;;;2;1.8;;;;;;;17.97;95.9668;940.2864;;;;
2022/07/04 02:19:35;;;;;;;2.8;1.7;;;;;;;17.87;95.79395;940.3088;;;;
2022/07/04 02:22:04;;;;;;;3.1;1.8;;;;;;;17.74;95.43945;940.35;;;;
2022/07/04 02:24:29;;;;;;;2.1;1.9;;;;;;;17.79;96.13672;940.3718;;;;
2022/07/04 02:26:55;;;;;;;2.4;1.8;;;;;;;17.96;95.91602;940.3502;;;;
2022/07/04 02:29:20;;;;;;;2.5;1.8;;;;;;;17.75;96.26563;940.3531;;;;
2022/07/04 02:31:47;;;;;;;2.6;1.9;;;;;;;17.58;96.21875;940.2648;;;;
2022/07/04 02:34:12;;;;;;;3.7;1.7;;;;;;;17.72;96.23633;940.2593;;;;
2022/07/04 02:36:39;;;;;;;2;1.7;;;;;;;17.67;95.64453;940.2034;;;;
2022/07/04 02:39:04;;;;;;;2.4;1.8;;;;;;;17.6;96.93945;940.1445;;;;
2022/07/04 02:41:33;;;;;;;1.7;1.6;;;;;;;17.58;96.76367;940.1199;;;;
2022/07/04 02:43:58;;;;;;;2.2;1.7;;;;;;;17.65;96.26758;940.1336;;;;
2022/07/04 02:46:29;;;;;;;3.5;1.9;;;;;;;17.7;95.79004;940.0809;;;;
2022/07/04 02:48:55;;;;;;;1.9;1.6;;;;;;;17.88;94.26367;940.0244;;;;
2022/07/04 02:51:20;;;;;;;1.7;1.6;;;;;;;17.76;94.77051;940.03;;;;
2022/07/04 02:53:46;;;;;;;3.9;2.2;;;;;;;17.67;95.25;940.1583;;;;
2022/07/04 02:56:12;;;;;;;1.8;1.6;;;;;;;17.58;95.4043;940.0893;;;;
2022/07/04 02:58:44;;;;;;;2.4;1.7;;;;;;;17.65;95.54785;940.1626;;;;
2022/07/04 03:01:13;;;;;;;2.8;1.8;;;;;;;17.77;94.96973;940.0765;;;;
2022/07/04 03:03:38;;;;;;;2.7;1.6;;;;;;;17.8;95.52246;940.0422;;;;
2022/07/04 03:06:08;;;;;;;2.3;1.8;;;;;;;17.64;95.68457;940.05;;;;
2022/07/04 03:08:34;;;;;;;2.1;1.7;;;;;;;17.62;96.5625;940.097;;;;
2022/07/04 03:10:59;;;;;;;1.7;1.6;;;;;;;17.66;96.59375;940.0474;;;;
2022/07/04 03:13:27;;;;;;;1.8;1.7;;;;;;;17.65;97.25391;940.1239;;;;
2022/07/04 03:15:52;;;;;;;2.1;1.9;;;;;;;17.57;97.31934;940.082;;;;
2022/07/04 03:18:20;;;;;;;2.5;1.9;;;;;;;17.66;96.81445;940.0046;;;;
2022/07/04 03:20:45;;;;;;;2.3;2;;;;;;;17.62;97.31738;940.0519;;;;
2022/07/04 03:23:11;;;;;;;2.1;1.9;;;;;;;17.6;96.38281;940.1172;;;;
2022/07/04 03:25:36;;;;;;;1.9;1.8;;;;;;;17.67;95.89941;940.1269;;;;
2022/07/04 03:28:03;;;;;;;2.4;1.7;;;;;;;17.64;96.58984;940.2006;;;;
2022/07/04 03:30:28;;;;;;;2;1.9;;;;;;;17.52;97.14258;940.1563;;;;
2022/07/04 03:32:56;;;;;;;2.8;1.9;;;;;;;17.34;98.3916;940.2267;;;;
2022/07/04 03:35:21;;;;;;;2.7;2;;;;;;;17.54;97.85645;940.209;;;;
2022/07/04 03:37:49;;;;;;;3.2;1.9;;;;;;;17.55;97.15039;940.2225;;;;
2022/07/04 03:40:14;;;;;;;2.8;2;;;;;;;17.43;97.56348;940.2887;;;;
2022/07/04 03:42:42;;;;;;;2.1;1.8;;;;;;;17.46;97.6875;940.4025;;;;
2022/07/04 03:45:07;;;;;;;2.2;2;;;;;;;17.49;97.17285;940.3642;;;;
2022/07/04 03:47:39;;;;;;;2.2;2;;;;;;;17.5;97.34961;940.3819;;;;
2022/07/04 03:50:09;;;;;;;2.8;1.9;;;;;;;17.72;96.34082;940.4115;;;;
2022/07/04 03:52:39;;;;;;;3.3;1.9;;;;;;;17.72;95.20117;940.4149;;;;
2022/07/04 03:55:15;;;;;;;3;1.9;;;;;;;17.71;94.95801;940.4439;;;;
2022/07/04 03:57:43;;;;;;;2.1;1.7;;;;;;;17.54;95.48926;940.4684;;;;
2022/07/04 04:00:11;;;;;;;2.2;1.5;;;;;;;17.72;94.74902;940.5316;;;;
2022/07/04 04:02:40;;;;;;;1.6;1.5;;;;;;;17.69;95;940.5851;;;;
2022/07/04 04:07:37;;;;;;;2.2;1.8;;;;;;;17.81;95.41992;940.693;;;;
2022/07/04 04:10:15;;;;;;;2.9;1.5;;;;;;;18.01;94.70703;940.7064;;;;
2022/07/04 04:12:44;;;;;;;2.8;2;;;;;;;17.91;95.86035;940.7346;;;;
2022/07/04 04:15:17;;;;;;;1.8;1.7;;;;;;;17.96;94.99902;940.7258;;;;
2022/07/04 04:17:49;;;;;;;2.3;1.9;;;;;;;17.97;95.29297;940.6892;;;;
2022/07/04 04:20:14;;;;;;;3.2;1.7;;;;;;;18.18;94.70898;940.7693;;;;
2022/07/04 04:22:46;;;;;;;1.4;1.3;;;;;;;18.28;93.61426;940.8189;;;;
2022/07/04 04:25:14;;;;;;;1.5;1.4;;;;;;;18.34;92.78125;940.9169;;;;
2022/07/04 04:27:39;;;;;;;1.4;1.3;;;;;;;18.45;92.35059;941.0542;;;;
2022/07/04 04:30:15;;;;;;;2;1.8;;;;;;;18.44;92.23242;941.1019;;;;
2022/07/04 04:32:40;;;;;;;3.6;1.4;;;;;;;18.48;91.42578;941.0844;;;;
2022/07/04 04:35:12;;;;;;;1.8;1.5;;;;;;;18.54;91.94922;941.1616;;;;
2022/07/04 04:37:42;;;;;;;2.4;1.7;;;;;;;18.6;91.9502;941.1558;;;;
2022/07/04 04:40:08;;;;;;;1.6;1.5;;;;;;;18.65;91.15918;941.2112;;;;
2022/07/04 04:42:33;;;;;;;1.6;1.5;;;;;;;18.65;91.07813;941.2797;;;;
2022/07/04 04:45:02;;;;;;;2.6;1.5;;;;;;;18.72;90.66016;941.2851;;;;
2022/07/04 04:47:27;;;;;;;1.4;1.3;;;;;;;18.68;89.28027;941.3052;;;;
2022/07/04 04:49:58;;;;;;;1.8;1.7;;;;;;;18.76;89.06445;941.3635;;;;
2022/07/04 04:52:22;;;;;;;1.9;1.7;;;;;;;18.78;89.76758;941.4437;;;;
2022/07/04 04:54:48;;;;;;;2.5;1.8;;;;;;;18.93;90.32129;941.4988;;;;
2022/07/04 04:57:13;;;;;;;2.1;1.8;;;;;;;19.04;89.2373;941.5737;;;;
2022/07/04 04:59:49;;;;;;;2.7;1.6;;;;;;;18.96;88.16309;941.5789;;;;
2022/07/04 05:02:18;;;;;;;2.6;1.9;;;;;;;18.93;88.72656;941.6448;;;;
2022/07/04 05:04:43;;;;;;;4.4;2;;;;;;;18.91;89.06055;941.6871;;;;
2022/07/04 05:07:13;;;;;;;3.2;1.5;;;;;;;18.98;89.57324;941.7828;;;;
2022/07/04 05:09:39;;;;;;;2.3;1.8;;;;;;;19.1;88.91211;941.8141;;;;
2022/07/04 05:12:03;;;;;;;3.2;2;;;;;;;19.21;89.07422;941.8363;;;;
2022/07/04 05:14:30;;;;;;;4;1.8;;;;;;;19.2;89.04883;941.851;;;;
2022/07/04 05:16:55;;;;;;;2.5;1.7;;;;;;;19.28;89.04199;941.8231;;;;
2022/07/04 05:19:22;;;;;;;1.7;1.6;;;;;;;19.33;88.73633;941.8917;;;;
2022/07/04 05:21:47;;;;;;;1.8;1.5;;;;;;;19.4;88.96094;941.8758;;;;
2022/07/04 05:24:14;;;;;;;2.9;1.9;;;;;;;19.41;88.99902;941.8643;;;;
2022/07/04 05:26:39;;;;;;;3.3;1.8;;;;;;;19.51;87.75879;941.98;;;;
2022/07/04 05:29:07;;;;;;;1.8;1.5;;;;;;;19.64;88.38965;942.0564;;;;
2022/07/04 05:31:32;;;;;;;3.2;1.7;;;;;;;19.7;89.09082;942.0212;;;;
2022/07/04 05:33:58;;;;;;;3.5;1.8;;;;;;;19.76;88.24023;941.9336;;;;
2022/07/04 05:36:23;;;;;;;2.1;1.5;;;;;;;19.87;86.87598;941.8233;;;;
2022/07/04 05:38:53;;;;;;;1.9;1.4;;;;;;;19.94;84.96191;941.8463;;;;
2022/07/04 05:41:18;;;;;;;1.4;1.3;;;;;;;20.11;85.27441;941.889;;;;
2022/07/04 05:43:46;;;;;;;2.9;1.7;;;;;;;20.04;84.31738;941.9219;;;;
2022/07/04 05:46:11;;;;;;;2.3;1.6;;;;;;;20.08;84.09277;941.926;;;;
2022/07/04 05:48:39;;;;;;;1.4;1.3;;;;;;;20.18;82.79297;941.9618;;;;
2022/07/04 05:51:04;;;;;;;2.5;1.4;;;;;;;20.22;82.55371;941.9094;;;;
2022/07/04 05:53:31;;;;;;;2.7;1.8;;;;;;;20.2;82.9248;941.9095;;;;
2022/07/04 05:55:56;;;;;;;4.7;2.1;;;;;;;20.23;83.9668;941.9458;;;;
2022/07/04 05:58:23;;;;;;;2.7;1.9;;;;;;;20.26;84.44238;941.9425;;;;
2022/07/04 06:00:48;;;;;;;3.6;2.1;;;;;;;20.17;85.1582;941.9047;;;;
2022/07/04 06:03:16;;;;;;;2.1;1.8;;;;;;;20.12;86.37402;941.8889;;;;
2022/07/04 06:05:47;;;;;;;1.7;1.6;;;;;;;20.21;85.83301;941.8998;;;;
2022/07/04 06:08:12;;;;;;;1.7;1.6;;;;;;;;;;;;;
2022/07/04 06:10:37;;;;;;;2.3;1.6;;;;;;;;;;;;;
2022/07/04 06:13:02;;;;;;;2.5;1.7;;;;;;;;;;;;;
2022/07/04 06:15:30;;;;;;;1.8;1.6;;;;;;;;;;;;;
2022/07/04 06:17:55;;;;;;;1.9;1.6;;;;;;;;;;;;;
2022/07/04 06:20:22;;;;;;;1.6;1.5;;;;;;;;;;;;;
2022/07/04 06:22:46;;;;;;;1.8;1.5;;;;;;;;;;;;;
2022/07/04 06:25:14;;;;;;;1.5;1.4;;;;;;;;;;;;;
2022/07/04 06:27:39;;;;;;;3.4;1.5;;;;;;;;;;;;;
2022/07/04 06:30:04;;;;;;;2.3;1.6;;;;;;;;;;;;;
2022/07/04 06:32:29;;;;;;;2.9;1.4;;;;;;;;;;;;;
2022/07/04 06:35:56;;;;;;;1.5;1.4;;;;;;;;;;;;;
2022/07/04 06:37:22;;;;;;;2;1.4;;;;;;;;;;;;;
2022/07/04 06:39:47;;;;;;;2;1.5;;;;;;;;;;;;;
2022/07/04 06:42:14;;;;;;;1.9;1.5;;;;;;;;;;;;;
2022/07/04 06:44:39;;;;;;;2;1.4;;;;;;;;;;;;;
2022/07/04 06:47:06;;;;;;;1.6;1.5;;;;;;;;;;;;;
2022/07/04 06:49:31;;;;;;;2.3;1.4;;;;;;;;;;;;;
2022/07/04 06:52:00;;;;;;;2.5;1.5;;;;;;;;;;;;;
2022/07/04 06:54:25;;;;;;;3;1.4;;;;;;;;;;;;;
2022/07/04 06:56:51;;;;;;;2.5;1.6;;;;;;;;;;;;;
2022/07/04 06:59:17;;;;;;;1.9;1.3;;;;;;;;;;;;;
2022/07/04 07:01:42;;;;;;;1.7;1.5;;;;;;;;;;;;;
2022/07/04 07:04:07;;;;;;;2.9;1.5;;;;;;;;;;;;;
2022/07/04 07:06:32;;;;;;;1.9;1.5;;;;;;;;;;;;;
2022/07/04 07:08:57;;;;;;;1.8;1.6;;;;;;;;;;;;;
2022/07/04 07:11:23;;;;;;;2.8;1.9;;;;;;;;;;;;;
2022/07/04 07:13:49;;;;;;;4.1;2;;;;;;;;;;;;;
2022/07/04 07:16:16;;;;;;;2.7;1.8;;;;;;;;;;;;;
2022/07/04 07:18:41;;;;;;;1.9;1.7;;;;;;;;;;;;;
2022/07/04 07:21:06;;;;;;;2.2;1.8;;;;;;;;;;;;;
2022/07/04 07:23:31;;;;;;;3.1;1.8;;;;;;;;;;;;;
2022/07/04 07:25:58;;;;;;;3.3;1.9;;;;;;;;;;;;;
2022/07/04 07:28:23;;;;;;;2.7;2.1;;;;;;;;;;;;;
2022/07/04 07:30:48;;;;;;;2.6;1.7;;;;;;;;;;;;;
2022/07/04 07:33:14;;;;;;;2.3;1.9;;;;;;;;;;;;;
2022/07/04 07:35:42;;;;;;;2.5;2.2;;;;;;;;;;;;;
2022/07/04 07:38:08;;;;;;;3.1;1.9;;;;;;;;;;;;;
2022/07/04 07:40:33;;;;;;;2;1.8;;;;;;;;;;;;;
2022/07/04 07:43:04;;;;;;;5.8;3.5;;;;;;;;;;;;;
2022/07/04 07:45:30;;;;;;;2.3;1.8;;;;;;;;;;;;;
2022/07/04 07:47:55;;;;;;;2.7;2.1;;;;;;;;;;;;;
2022/07/04 07:50:22;;;;;;;2.9;2;;;;;;;;;;;;;
2022/07/04 07:52:47;;;;;;;2.5;1.9;;;;;;;;;;;;;
2022/07/04 07:55:13;;;;;;;3.7;1.9;;;;;;;;;;;;;
2022/07/04 07:57:38;;;;;;;4.5;2.1;;;;;;;;;;;;;
2022/07/04 08:00:04;;;;;;;3.1;1.9;;;;;;;;;;;;;
2022/07/04 08:04:54;;;;;;;2.4;1.9;;;;;;;;;;;;;
2022/07/04 08:07:19;;;;;;;3;1.6;;;;;;;;;;;;;
2022/07/04 08:09:45;;;;;;;4.8;1.8;;;;;;;;;;;;;
2022/07/04 08:12:10;;;;;;;1.8;1.7;;;;;;;;;;;;;
2022/07/04 08:14:35;;;;;;;2;1.8;;;;;;;;;;;;;
2022/07/04 08:17:00;;;;;;;2.2;2;;;;;;;;;;;;;
2022/07/04 08:19:27;;;;;;;2.7;1.9;;;;;;;;;;;;;
2022/07/04 08:21:51;;;;;;;2.1;1.8;;;;;;;;;;;;;
2022/07/04 08:24:18;;;;;;;2.1;1.9;;;;;;;;;;;;;
2022/07/04 08:26:43;;;;;;;1.7;1.5;;;;;;;;;;;;;
2022/07/04 08:29:08;;;;;;;2.3;1.7;;;;;;;;;;;;;
2022/07/04 08:31:33;;;;;;;2.6;1.7;;;;;;;;;;;;;
2022/07/04 08:34:00;;;;;;;1.6;1.5;;;;;;;;;;;;;
2022/07/04 08:36:25;;;;;;;3.3;1.7;;;;;;;;;;;;;
2022/07/04 08:38:51;;;;;;;2;1.8;;;;;;;;;;;;;
2022/07/04 08:41:16;;;;;;;3.6;2.3;;;;;;;;;;;;;
2022/07/04 08:43:41;;;;;;;3;2.2;;;;;;;;;;;;;
2022/07/04 08:46:06;;;;;;;3.5;2.2;;;;;;;;;;;;;
2022/07/04 08:48:34;;;;;;;2.5;2;;;;;;;;;;;;;
2022/07/04 08:50:59;;;;;;;4.2;2.2;;;;;;;;;;;;;
2022/07/04 08:53:25;;;;;;;2.5;2;;;;;;;;;;;;;
2022/07/04 08:58:29;;;;;;;4.5;2.2;;;;;;;;;;;;;
2022/07/04 09:00:40;;;;;;;3.1;2;;;;;;;;;;;;;
2022/07/04 09:03:07;;;;;;;3.4;2;;;;;;;;;;;;;
2022/07/04 09:05:32;;;;;;;2.5;2.1;;;;;;;;;;;;;
2022/07/04 09:07:58;;;;;;;1.8;1.7;;;;;;;;;;;;;
2022/07/04 09:10:23;;;;;;;1.7;1.6;;;;;;;;;;;;;
2022/07/04 09:12:50;;;;;;;3.6;2.1;;;;;;;;;;;;;
2022/07/04 09:15:15;;;;;;;4.1;2.2;;;;;;;;;;;;;
2022/07/04 09:17:40;;;;;;;3.1;2.1;;;;;;;;;;;;;
2022/07/04 09:20:05;;;;;;;3;1.9;;;;;;;;;;;;;
2022/07/04 09:22:30;;;;;;;2.1;1.8;;;;;;;;;;;;;
2022/07/04 09:24:55;;;;;;;2;1.9;;;;;;;;;;;;;
2022/07/04 09:27:23;;;;;;;2.8;2;;;;;;;;;;;;;
2022/07/04 09:29:48;;;;;;;2;1.8;;;;;;;;;;;;;
2022/07/04 09:32:14;;;;;;;2.6;2;;;;;;;;;;;;;
2022/07/04 09:34:39;;;;;;;2.1;1.9;;;;;;;;;;;;;
2022/07/04 09:37:05;;;;;;;2.3;2.1;;;;;;;;;;;;;
2022/07/04 09:39:30;;;;;;;2.4;1.8;;;;;;;;;;;;;
2022/07/04 09:41:57;;;;;;;3.1;1.9;;;;;;;;;;;;;
2022/07/04 09:44:22;;;;;;;2.8;2.1;;;;;;;;;;;;;
2022/07/04 09:46:47;;;;;;;3.2;2.1;;;;;;;;;;;;;
2022/07/04 09:49:12;;;;;;;4.1;2;;;;;;;;;;;;;
2022/07/04 09:51:37;;;;;;;2.2;1.8;;;;;;;;;;;;;
2022/07/04 09:54:03;;;;;;;2;1.6;;;;;;;;;;;;;
2022/07/04 09:56:28;;;;;;;2.8;1.9;;;;;;;;;;;;;
2022/07/04 09:58:53;;;;;;;2.6;2;;;;;;;;;;;;;
2022/07/04 10:01:18;;;;;;;2.2;2;;;;;;;;;;;;;
2022/07/04 10:03:45;;;;;;;2.1;1.6;;;;;;;;;;;;;
2022/07/04 10:06:11;;;;;;;2.2;1.8;;;;;;;;;;;;;
2022/07/04 10:08:37;;;;;;;1.6;1.5;;;;;;;;;;;;;
2022/07/04 10:11:02;;;;;;;2.1;1.8;;;;;;;;;;;;;
2022/07/04 10:13:27;;;;;;;2.5;1.7;;;;;;;;;;;;;
2022/07/04 10:15:53;;;;;;;1.7;1.6;;;;;;;;;;;;;
2022/07/04 10:18:21;;;;;;;2;1.6;;;;;;;;;;;;;
2022/07/04 10:20:44;;;;;;;1.7;1.6;;;;;;;;;;;;;
2022/07/04 10:23:09;;;;;;;2;1.7;;;;;;;;;;;;;
2022/07/04 10:25:34;;;;;;;2.4;1.7;;;;;;;;;;;;;
2022/07/04 10:28:00;;;;;;;1.9;1.5;;;;;;;;;;;;;
2022/07/04 10:30:25;;;;;;;1.3;1.2;;;;;;;;;;;;;
2022/07/04 10:32:52;;;;;;;1.4;1.3;;;;;;;;;;;;;
2022/07/04 10:35:17;;;;;;;1.5;1.4;;;;;;;;;;;;;
2022/07/04 10:37:43;;;;;;;3.3;1.6;;;;;;;;;;;;;
2022/07/04 10:40:09;;;;;;;3.2;1.5;;;;;;;;;;;;;
2022/07/04 10:42:35;;;;;;;5.8;2;;;;;;;;;;;;;
2022/07/04 10:45:01;;;;;;;2.2;1.5;;;;;;;;;;;;;
2022/07/04 10:47:29;;;;;;;2.3;1.6;;;;;;;;;;;;;
2022/07/04 10:49:53;;;;;;;2.8;1.9;;;;;;;;;;;;;
2022/07/04 10:52:19;;;;;;;2.8;1.9;;;;;;;;;;;;;
2022/07/04 10:54:44;;;;;;;2.4;1.8;;;;;;;;;;;;;
2022/07/04 10:57:10;;;;;;;2.6;1.9;;;;;;;;;;;;;
2022/07/04 10:59:35;;;;;;;1.8;1.5;;;;;;;;;;;;;
2022/07/04 11:02:03;;;;;;;3.1;1.6;;;;;;;;;;;;;
2022/07/04 11:04:28;;;;;;;2.4;1.7;;;;;;;;;;;;;
2022/07/04 11:06:55;;;;;;;1.4;1.3;;;;;;;;;;;;;
2022/07/04 11:09:18;;;;;;;2.4;1.6;;;;;;;;;;;;;
2022/07/04 11:11:53;;;;;;;2.5;1.6;;;;;;;;;;;;;
2022/07/04 11:14:18;;;;;;;1.5;1.4;;;;;;;;;;;;;
2022/07/04 11:16:44;;;;;;;2.1;1.8;;;;;;;;;;;;;
2022/07/04 11:19:09;;;;;;;2.4;1.8;;;;;;;;;;;;;
2022/07/04 11:21:35;;;;;;;2.2;1.1;;;;;;;;;;;;;
2022/07/04 11:24:00;;;;;;;1.3;1.2;;;;;;;;;;;;;
2022/07/04 11:26:26;;;;;;;1.7;1.4;;;;;;;;;;;;;
2022/07/04 11:28:52;;;;;;;1.2;1.1;;;;;;;;;;;;;
2022/07/04 11:31:16;;;;;;;1.2;1.1;;;;;;;;;;;;;
2022/07/04 11:33:42;;;;;;;1.4;1.3;;;;;;;;;;;;;
2022/07/04 11:36:07;;;;;;;1.5;1.1;;;;;;;;;;;;;
2022/07/04 11:38:32;;;;;;;1.7;1.1;;;;;;;;;;;;;
2022/07/04 11:45:50;;;;;;;1.8;1.1;;;;;;;;;;;;;
2022/07/04 11:48:14;;;;;;;2.1;1;;;;;;;;;;;;;
2022/07/04 11:50:40;;;;;;;1.3;1.2;;;;;;;;;;;;;
2022/07/04 11:53:05;;;;;;;1.2;1.1;;;;;;;;;;;;;
2022/07/04 11:55:30;;;;;;;1.5;1.1;;;;;;;;;;;;;
2022/07/04 11:57:57;;;;;;;1.3;1.2;;;;;;;;;;;;;
2022/07/04 12:00:20;;;;;;;3.2;1.2;;;;;;;;;;;;;
2022/07/04 12:02:47;;;;;;;2.7;1.2;;;;;;;;;;;;;
2022/07/04 12:05:12;;;;;;;1;1;;;;;;;;;;;;;
2022/07/04 12:07:37;;;;;;;1;1;;;;;;;;;;;;;
2022/07/04 12:10:04;;;;;;;0.9;0.9;;;;;;;;;;;;;
2022/07/04 12:12:29;;;;;;;1.4;0.9;;;;;;;;;;;;;
2022/07/04 12:14:54;;;;;;;1;0.9;;;;;;;;;;;;;
2022/07/04 12:17:19;;;;;;;1.3;0.9;;;;;;;;;;;;;
2022/07/04 12:19:46;;;;;;;1.5;0.9;;;;;;;;;;;;;
2022/07/04 12:22:11;;;;;;;0.8;0.8;;;;;;;;;;;;;
2022/07/04 12:24:36;;;;;;;1.2;1.1;;;;;;;;;;;;;
2022/07/04 12:27:01;;;;;;;0.9;0.9;;;;;;;;;;;;;
2022/07/04 12:29:28;;;;;;;1.1;1;;;;;;;;;;;;;
2022/07/04 12:31:54;;;;;;;1.1;0.9;;;;;;;;;;;;;
2022/07/04 12:34:20;;;;;;;1.1;1;;;;;;;;;;;;;
2022/07/04 12:36:45;;;;;;;1.9;1.1;;;;;;;;;;;;;
2022/07/04 12:39:10;;;;;;;1.4;1;;;;;;;;;;;;;
2022/07/04 12:41:35;;;;;;;1.1;1;;;;;;;;;;;;;
2022/07/04 12:44:01;;;;;;;1.2;1.1;;;;;;;;;;;;;
2022/07/04 12:46:29;;;;;;;1.8;1;;;;;;;;;;;;;
2022/07/04 12:48:54;;;;;;;1.1;1;;;;;;;;;;;;;
2022/07/04 12:51:20;;;;;;;2;1.1;;;;;;;;;;;;;
2022/07/04 12:53:45;;;;;;;1.6;1.1;;;;;;;;;;;;;
2022/07/04 12:56:10;;;;;;;1.9;1.3;;;;;;;;;;;;;
2022/07/04 12:58:35;;;;;;;1.1;1;;;;;;;;;;;;;
2022/07/04 13:01:01;;;;;;;1.2;1.1;;;;;;;;;;;;;
2022/07/04 13:03:26;;;;;;;2.4;1;;;;;;;;;;;;;
2022/07/04 13:05:52;;;;;;;1.4;1;;;;;;;;;;;;;
2022/07/04 13:08:18;;;;;;;2.5;0.9;;;;;;;;;;;;;
2022/07/04 13:10:45;;;;;;;0.8;0.8;;;;;;;;;;;;;
2022/07/04 13:13:10;;;;;;;1.3;1;;;;;;;;;;;;;
2022/07/04 13:15:36;;;;;;;1.9;1;;;;;;;;;;;;;
2022/07/04 13:18:01;;;;;;;1.3;1.1;;;;;;;;;;;;;
2022/07/04 13:20:27;;;;;;;1.8;1.2;;;;;;;;;;;;;
2022/07/04 13:22:52;;;;;;;1.4;1.1;;;;;;;;;;;;;
2022/07/04 13:25:18;;;;;;;1.2;1.1;;;;;;;;;;;;;
2022/07/04 13:27:44;;;;;;;2.9;1.3;;;;;;;;;;;;;
2022/07/04 13:30:10;;;;;;;1.5;1.4;;;;;;;;;;;;;
2022/07/04 13:32:35;;;;;;;1.2;1.1;;;;;;;;;;;;;
2022/07/04 13:35:00;;;;;;;1.3;1.2;;;;;;;;;;;;;
2022/07/04 13:37:25;;;;;;;4.1;1.6;;;;;;;;;;;;;
2022/07/04 13:39:51;;;;;;;1.4;1.3;;;;;;;;;;;;;
2022/07/04 13:42:56;;;;;;;1.6;1.3;;;;;;;;;;;;;
2022/07/04 13:44:41;;;;;;;1.8;1.2;;;;;;;;;;;;;
2022/07/04 13:47:07;;;;;;;2.3;1.5;;;;;;;;;;;;;
2022/07/04 13:49:32;;;;;;;1.8;1.2;;;;;;;;;;;;;
2022/07/04 13:51:57;;;;;;;1.6;1.4;;;;;;;;;;;;;
2022/07/04 13:54:22;;;;;;;1.7;1.4;;;;;;;;;;;;;
2022/07/04 13:56:48;;;;;;;2;1.6;;;;;;;;;;;;;
2022/07/04 13:59:13;;;;;;;3.1;1.8;;;;;;;;;;;;;
2022/07/04 14:01:39;;;;;;;1.8;1.3;;;;;;;;;;;;;
2022/07/04 14:04:04;;;;;;;2;1.6;;;;;;;;;;;;;
2022/07/04 14:06:32;;;;;;;2;1.4;;;;;;;;;;;;;
2022/07/04 14:08:57;;;;;;;2.9;1.4;;;;;;;;;;;;;
2022/07/04 14:11:22;;;;;;;1.6;1.5;;;;;;;;;;;;;
2022/07/04 14:13:47;;;;;;;2.4;1.4;;;;;;;;;;;;;
2022/07/04 14:16:15;;;;;;;2.2;1.3;;;;;;;;;;;;;
2022/07/04 14:18:40;;;;;;;1.9;1.4;;;;;;;;;;;;;
2022/07/04 14:21:05;;;;;;;1.5;1.4;;;;;;;;;;;;;
2022/07/04 14:23:42;;;;;;;3.2;1.6;;;;;;;;;;;;;
2022/07/04 14:25:57;;;;;;;2.9;1.5;;;;;;;;;;;;;
2022/07/04 14:28:22;;;;;;;1.6;1.4;;;;;;;;;;;;;
2022/07/04 14:30:48;;;;;;;2.4;1.5;;;;;;;;;;;;;
2022/07/04 14:33:13;;;;;;;4;1.6;;;;;;;;;;;;;
2022/07/04 14:35:40;;;;;;;1.7;1.3;;;;;;;;;;;;;
2022/07/04 14:38:05;;;;;;;1.5;1.4;;;;;;;;;;;;;
2022/07/04 14:40:33;;;;;;;1.4;1.3;;;;;;;;;;;;;
2022/07/04 14:42:58;;;;;;;2.7;1.7;;;;;;;;;;;;;
2022/07/04 14:45:23;;;;;;;2.5;1.5;;;;;;;;;;;;;
2022/07/04 14:47:48;;;;;;;2.6;1.5;;;;;;;;;;;;;
2022/07/04 14:50:17;;;;;;;3.2;1.6;;;;;;;;;;;;;
2022/07/04 14:52:42;;;;;;;1.5;1.4;;;;;;;;;;;;;
2022/07/04 14:55:11;;;;;;;1.8;1.6;;;;;;;;;;;;;
2022/07/04 14:57:37;;;;;;;3.3;1.4;;;;;;;;;;;;;
2022/07/04 15:00:02;;;;;;;1.9;1.5;;;;;;;;;;;;;
2022/07/04 15:02:29;;;;;;;2.2;1.4;;;;;;;;;;;;;
2022/07/04 15:04:55;;;;;;;2.9;1.4;;;;;;;;;;;;;
2022/07/04 15:07:20;;;;;;;1.9;1.4;;;;;;;;;;;;;
2022/07/04 15:09:45;;;;;;;1.6;1.5;;;;;;;;;;;;;
2022/07/04 15:12:10;;;;;;;2.2;1.6;;;;;;;;;;;;;
2022/07/04 15:14:35;;;;;;;1.8;1.6;;;;;;;;;;;;;
2022/07/04 15:17:02;;;;;;;1.6;1.3;;;;;;;;;;;;;
2022/07/04 15:19:27;;;;;;;1.7;1.6;;;;;;;;;;;;;
2022/07/04 15:24:18;;;;;;;3;1.5;;;;;;;;;;;;;
2022/07/04 15:26:43;;;;;;;1.8;1.7;;;;;;;;;;;;;
2022/07/04 15:29:10;;;;;;;3.8;1.9;;;;;;;;;;;;;
2022/07/04 15:31:34;;;;;;;3.2;1.5;;;;;;;;;;;;;
2022/07/04 15:34:02;;;;;;;2;1.6;;;;;;;;;;;;;
2022/07/04 15:36:27;;;;;;;2.6;1.4;;;;;;;;;;;;;
2022/07/04 15:38:54;;;;;;;1.5;1.4;;;;;;;;;;;;;
2022/07/04 15:41:19;;;;;;;1.7;1.6;;;;;;;;;;;;;
2022/07/04 15:43:46;;;;;;;2.7;1.7;;;;;;;;;;;;;
2022/07/04 15:46:11;;;;;;;2.9;1.3;;;;;;;;;;;;;
2022/07/04 15:48:37;;;;;;;1.9;1.6;;;;;;;;;;;;;
2022/07/04 15:51:02;;;;;;;1.8;1.5;;;;;;;;;;;;;
2022/07/04 15:53:29;;;;;;;2;1.8;;;;;;;;;;;;;
2022/07/04 15:55:54;;;;;;;2.3;1.7;;;;;;;;;;;;;
2022/07/04 15:58:20;;;;;;;2.8;1.6;;;;;;;;;;;;;
2022/07/04 16:00:45;;;;;;;1.8;1.7;;;;;;;;;;;;;
2022/07/04 16:03:13;;;;;;;2.3;2;;;;;;;;;;;;;
2022/07/04 16:05:38;;;;;;;2.4;1.5;;;;;;;;;;;;;
2022/07/04 16:08:03;;;;;;;1.8;1.5;;;;;;;;;;;;;
2022/07/04 16:10:28;;;;;;;2.3;1.7;;;;;;;;;;;;;
2022/07/04 16:12:55;;;;;;;2.2;1.7;;;;;;;;;;;;;
2022/07/04 16:15:20;;;;;;;2.5;1.6;;;;;;;;;;;;;
2022/07/04 16:17:47;;;;;;;1.9;1.8;;;;;;;;;;;;;
2022/07/04 16:20:12;;;;;;;2.3;1.7;;;;;;;;;;;;;
2022/07/04 16:22:39;;;;;;;2.1;1.8;;;;;;;;;;;;;
2022/07/04 16:25:05;;;;;;;2.5;1.8;;;;;;;;;;;;;
2022/07/04 16:27:33;;;;;;;2;1.8;;;;;;;;;;;;;
2022/07/04 16:30:02;;;;;;;1.7;1.6;;;;;;;;;;;;;
2022/07/04 16:32:28;;;;;;;3.1;1.8;;;;;;;;;;;;;
2022/07/04 16:34:54;;;;;;;1.7;1.6;;;;;;;;;;;;;
2022/07/04 16:37:19;;;;;;;1.9;1.8;;;;;;;;;;;;;
2022/07/04 16:39:44;;;;;;;3.1;1.8;;;;;;;;;;;;;
2022/07/04 16:42:09;;;;;;;2.8;1.7;;;;;;;;;;;;;
2022/07/04 16:44:37;;;;;;;1.9;1.7;;;;;;;;;;;;;
2022/07/04 16:47:02;;;;;;;1.9;1.8;;;;;;;;;;;;;
2022/07/04 16:49:27;;;;;;;1.9;1.7;;;;;;;;;;;;;
2022/07/04 16:51:53;;;;;;;1.9;1.7;;;;;;;;;;;;;
2022/07/04 16:54:18;;;;;;;2.2;2;;;;;;;;;;;;;
2022/07/04 16:56:43;;;;;;;3.5;1.9;;;;;;;;;;;;;
2022/07/04 16:59:09;;;;;;;2.7;1.8;;;;;;;;;;;;;
2022/07/04 17:01:34;;;;;;;2.9;1.8;;;;;;;;;;;;;
2022/07/04 17:04:01;;;;;;;2.2;2;;;;;;;;;;;;;
2022/07/04 17:06:26;;;;;;;2.4;2.2;;;;;;;;;;;;;
2022/07/04 17:08:51;;;;;;;3.1;2;;;;;;;;;;;;;
2022/07/04 17:11:16;;;;;;;3.1;2;;;;;;;;;;;;;
2022/07/04 17:13:42;;;;;;;2.4;2.2;;;;;;;;;;;;;
2022/07/04 17:16:07;;;;;;;2.4;2.2;;;;;;;;;;;;;
2022/07/04 17:18:34;;;;;;;2.4;2.2;;;;;;;;;;;;;
2022/07/04 17:20:59;;;;;;;2.9;2.1;;;;;;;;;;;;;
2022/07/04 17:23:25;;;;;;;3.6;2.5;;;;;;;;;;;;;
2022/07/04 17:25:51;;;;;;;3.5;2.1;;;;;;;;;;;;;
2022/07/04 17:28:17;;;;;;;3.7;2.1;;;;;;;;;;;;;
2022/07/04 17:30:43;;;;;;;2.3;2.1;;;;;;;;;;;;;
2022/07/04 17:33:08;;;;;;;3.6;2.3;;;;;;;;;;;;;
2022/07/04 17:35:34;;;;;;;2.2;2;;;;;;;;;;;;;
2022/07/04 17:38:00;;;;;;;2.7;2.1;;;;;;;;;;;;;
2022/07/04 17:40:25;;;;;;;4.8;2.6;;;;;;;;;;;;;
2022/07/04 17:42:51;;;;;;;5.2;3.1;;;;;;;;;;;;;
2022/07/04 17:45:16;;;;;;;6.4;2.9;;;;;;;;;;;;;
2022/07/04 17:47:44;;;;;;;7;3.2;;;;;;;;;;;;;
2022/07/04 17:50:10;;;;;;;5.9;3.4;;;;;;;;;;;;;
2022/07/04 17:52:36;;;;;;;3.7;1.4;;;;;;;;;;;;;
2022/07/04 17:55:01;;;;;;;3.1;1.6;;;;;;;;;;;;;
2022/07/04 17:57:28;;;;;;;4.7;1.6;;;;;;;;;;;;;
2022/07/04 17:59:53;;;;;;;5.4;2;;;;;;;;;;;;;
2022/07/04 18:02:18;;;;;;;2.8;1.6;;;;;;;;;;;;;
2022/07/04 18:04:44;;;;;;;1.4;0.9;;;;;;;;;;;;;
2022/07/04 18:07:10;;;;;;;3.5;1.7;;;;;;;;;;;;;
2022/07/04 18:09:35;;;;;;;3.2;1.5;;;;;;;;;;;;;
2022/07/04 18:12:01;;;;;;;1.9;1.3;;;;;;;;;;;;;
2022/07/04 18:14:26;;;;;;;2.5;1.5;;;;;;;;;;;;;
2022/07/04 18:16:52;;;;;;;2.2;1.7;;;;;;;;;;;;;
2022/07/04 18:19:17;;;;;;;4.8;1.7;;;;;;;;;;;;;
2022/07/04 18:21:44;;;;;;;5.6;1.8;;;;;;;;;;;;;
2022/07/04 18:24:09;;;;;;;2.7;1.7;;;;;;;;;;;;;
2022/07/04 18:26:34;;;;;;;3.6;1.6;;;;;;;;;;;;;